Northport, AL (35475)

10:41 PM CDT on July 04, 2015 (GMT -0500)
Northwood Lake | | Change Station
CLOSE
Current Station
Personal Weather Station
Location: Northport, AL
Elevation: 205 ft
Nearby Weather Stations

Elev 205 ft 33.25 °N, 87.58 °W | Updated 1 minute ago

Overcast
Overcast
71.8 °F
Feels Like 71.8 °F
N
0.0
Wind Variable Wind from South
Gusts 0.0 mph

Today
High -- | Low -- °F
--% Chance of Precip.
Yesterday
High -- | Low -- °F
Precip. -- in
5:45 AM 8:03 PM
Waning Gibbous, 88% visible
Pressure 30.05 in
Visibility 7.0 miles
Clouds Overcast 900 ft
Dew Point 70 °F
Humidity 94%
Rainfall 0.43 in
Snow Depth Not available.
UV 0 out of 12
Pollen .50 out of 12
Air Quality Not available.
Flu Activity Not available.
METAR KTCL 050253Z AUTO 18005KT 7SM OVC009 22/21 A3006 RMK AO2 CIG 006V011 SLP175 T02220211 53013

More Conditions Fewer Conditions

Pressure 30.05 in
Visibility 7.0 miles
Clouds Overcast 900 ft
Dew Point 70 °F
Humidity 94%
Rainfall 0.43 in
Snow Depth Not available.
UV 0 out of 12
Pollen .50 out of 12
Air Quality Not available.
Flu Activity Not available.
METAR KTCL 050253Z AUTO 18005KT 7SM OVC009 22/21 A3006 RMK AO2 CIG 006V011 SLP175 T02220211 53013

More Conditions Fewer Conditions

10-Day Weather Forecast

×

Almanac

Astronomy

Jul. 04, 2015 Rise Set
Actual Time
Civil Twilight
Nautical Twilight
Astronomical Twilight
Moon
Length of Visible Light
Length of Day
Tomorrow will be .
, % of the Moon is Illuminated

Today's Extremes

State Highs State Lows

Community

WunderPhotos

Upload Photos

1,835,193 photos uploaded!

WunderBlogs® & News

Nearby

Air Quality

  Air Quality AQ Index Pollutant
Not available.

Snow Depth

Station Depth Elevation

Earthquake Activity

City Distance Mag. Time & Date
Minimum magnitude displayed is 2.5.

Coastal Water Temperatures

Place Temperature

Stations

Nearby Weather Stations

Station Location Temp. Windchill Dew Point Humidity Wind Precip. Elev Updated Type